Fincastle, Indiana
Current Conditions -  °F | °C
As of 7:35 AM on Sunday 25 Jan 2015 (Local Time) from K4I7 Reporting Station
Overcast Overcast  
Wind Chill:   Ceiling: 8000
Heat Index:   Visibility: 10mi
Dew Point: -1°   Wind: 0mph
Humidity: 81%   Direction: NA
Pressure: 29.65"   Gusts: NA
Location:  39.821°N, 86.7929°W
Report Text: K4I7 251235Z AUTO 00000KT 10SM BKN080 OVC090 02/M01 A2965 RMK AO2
Loading
Personal Weather Stations






























Interactive Weather Map New forecast layout! Learn more

10-Day Weather Forecast

Advertisements
Track Severe Weather on mobile